Time;durP1;ratioP1;P1;durP2;ratioP2;P2;SDS_P1;SDS_P2;PMS_P1;PMS_P2;Temp;Humidity;BMP_temperature;BMP_pressure;BME280_temperature;BME280_humidity;BME280_pressure;Samples;Min_cycle;Max_cycle;Signal;HPM_P1;HPM_P2
2023/08/22 00:02:25;;;;;;;7.87;7.17;;;25.60;99.90;;;;;;5032334;28;20173;-73
2023/08/22 00:04:51;;;;;;;8.43;7.23;;;25.60;99.90;;;;;;5031294;28;20541;-72
2023/08/22 00:07:17;;;;;;;7.17;6.53;;;25.50;99.90;;;;;;5031645;28;20484;-73
2023/08/22 00:09:43;;;;;;;7.20;6.50;;;25.40;99.90;;;;;;5032288;28;20251;-72
2023/08/22 00:12:09;;;;;;;7.60;6.80;;;25.40;99.90;;;;;;5032046;28;20179;-72
2023/08/22 00:14:35;;;;;;;7.83;6.60;;;25.40;99.90;;;;;;5032047;28;20785;-72
2023/08/22 00:17:00;;;;;;;7.93;7.23;;;25.40;99.90;;;;;;5032182;28;20164;-72
2023/08/22 00:19:26;;;;;;;8.43;6.77;;;25.30;99.90;;;;;;5031728;28;20178;-72
2023/08/22 00:21:52;;;;;;;7.63;6.87;;;25.30;99.90;;;;;;5031754;28;20286;-72
2023/08/22 00:24:18;;;;;;;7.50;6.80;;;25.30;99.90;;;;;;5031761;28;20163;-72
2023/08/22 00:26:44;;;;;;;7.60;6.80;;;25.30;99.90;;;;;;5031722;28;20453;-70
2023/08/22 00:29:09;;;;;;;7.53;6.43;;;25.30;99.90;;;;;;5031719;28;20178;-72
2023/08/22 00:31:35;;;;;;;11.73;7.07;;;25.40;99.90;;;;;;5032205;28;20171;-72
2023/08/22 00:34:01;;;;;;;8.10;6.07;;;25.50;99.90;;;;;;5030586;28;20175;-72
2023/08/22 00:36:28;;;;;;;7.30;6.37;;;25.50;99.90;;;;;;5032960;28;20611;-71
2023/08/22 00:38:53;;;;;;;8.00;6.60;;;25.50;99.90;;;;;;5035541;28;20418;-71
2023/08/22 00:41:19;;;;;;;6.93;6.20;;;25.50;99.90;;;;;;5035433;28;20448;-71
2023/08/22 00:43:46;;;;;;;9.43;7.03;;;25.40;99.90;;;;;;5035432;28;20225;-71
2023/08/22 00:46:12;;;;;;;7.50;6.70;;;25.30;99.90;;;;;;5035047;28;20187;-71
2023/08/22 00:48:38;;;;;;;7.03;6.43;;;25.30;99.90;;;;;;5035290;28;20486;-72
2023/08/22 00:51:04;;;;;;;7.33;6.73;;;25.30;99.90;;;;;;5034629;28;20237;-71
2023/08/22 00:53:30;;;;;;;6.90;6.30;;;25.20;99.90;;;;;;5035360;28;20175;-71
2023/08/22 00:55:55;;;;;;;7.07;6.17;;;25.20;99.90;;;;;;5034959;28;20430;-71
2023/08/22 00:58:22;;;;;;;8.43;6.77;;;25.10;99.90;;;;;;5034905;28;20908;-70
2023/08/22 01:00:48;;;;;;;7.10;6.40;;;25.10;99.90;;;;;;5035212;28;20187;-72
2023/08/22 01:03:13;;;;;;;6.03;5.40;;;25.20;99.90;;;;;;5035159;28;20414;-71
2023/08/22 01:05:47;;;;;;;7.00;6.40;;;25.30;99.90;;;;;;5034588;28;20202;-70
2023/08/22 01:08:24;;;;;;;6.40;5.80;;;25.30;99.90;;;;;;5034894;28;20289;-71
2023/08/22 01:10:54;;;;;;;7.27;6.57;;;25.10;99.90;;;;;;5035029;28;20425;-71
2023/08/22 01:13:33;;;;;;;6.40;5.80;;;25.20;99.90;;;;;;5034668;28;20410;-72
2023/08/22 01:16:00;;;;;;;5.90;5.40;;;25.30;99.90;;;;;;5033412;28;20867;-72
2023/08/22 01:18:27;;;;;;;7.23;6.53;;;25.20;99.90;;;;;;5034857;28;20549;-72
2023/08/22 01:21:04;;;;;;;6.60;5.93;;;25.10;99.90;;;;;;5033953;28;20450;-73
2023/08/22 01:23:30;;;;;;;6.77;6.10;;;25.10;99.90;;;;;;5034916;28;20385;-72
2023/08/22 01:25:56;;;;;;;6.60;5.80;;;25.10;99.90;;;;;;5034245;28;20450;-72
2023/08/22 01:28:34;;;;;;;6.80;6.20;;;25.00;99.90;;;;;;5033024;28;20171;-71
2023/08/22 01:31:11;;;;;;;8.23;7.43;;;25.00;99.90;;;;;;5034893;28;20398;-72
2023/08/22 01:34:12;;;;;;;7.07;6.40;;;25.00;99.90;;;;;;5034599;28;20861;-72
2023/08/22 01:36:38;;;;;;;6.87;4.80;;;25.00;99.90;;;;;;5017908;28;20435;-70
2023/08/22 01:39:07;;;;;;;7.60;6.90;;;25.00;99.90;;;;;;5034160;28;20411;-71
2023/08/22 01:41:34;;;;;;;9.13;7.37;;;25.00;99.90;;;;;;5034407;28;20445;-72
2023/08/22 01:44:00;;;;;;;6.50;5.90;;;25.10;99.90;;;;;;5034092;28;20926;-71
2023/08/22 01:46:26;;;;;;;6.93;6.20;;;25.10;99.90;;;;;;5034067;28;20426;-72
2023/08/22 01:48:51;;;;;;;7.70;6.70;;;25.10;99.90;;;;;;5033672;28;21013;-71
2023/08/22 01:51:17;;;;;;;6.80;6.20;;;25.20;99.90;;;;;;5033022;28;20201;-71
2023/08/22 01:53:43;;;;;;;6.03;5.50;;;25.20;99.90;;;;;;5034120;28;20163;-72
2023/08/22 01:56:09;;;;;;;6.20;5.60;;;25.20;99.90;;;;;;5033197;28;20429;-71
2023/08/22 01:58:34;;;;;;;6.10;5.60;;;25.20;99.90;;;;;;5033868;28;20174;-72
2023/08/22 02:01:11;;;;;;;6.73;6.03;;;25.20;99.90;;;;;;5033927;28;20223;-72
2023/08/22 02:03:37;;;;;;;7.50;5.83;;;25.20;99.90;;;;;;5032722;28;20226;-71
2023/08/22 02:06:03;;;;;;;6.03;5.47;;;25.20;99.90;;;;;;5033090;28;20422;-72
2023/08/22 02:08:28;;;;;;;6.10;5.50;;;25.20;99.90;;;;;;5032536;28;20402;-71
2023/08/22 02:10:54;;;;;;;7.17;6.43;;;25.10;99.90;;;;;;5033867;28;20178;-71
2023/08/22 02:13:19;;;;;;;7.90;6.50;;;25.10;99.90;;;;;;5033687;28;20175;-71
2023/08/22 02:15:45;;;;;;;6.00;5.40;;;25.10;99.90;;;;;;5033550;28;20190;-71
2023/08/22 02:18:10;;;;;;;5.47;4.97;;;25.10;99.90;;;;;;5033608;28;20182;-71
2023/08/22 02:20:36;;;;;;;6.20;5.60;;;25.10;99.90;;;;;;5033185;28;20203;-71
2023/08/22 02:23:02;;;;;;;6.27;5.50;;;25.10;99.90;;;;;;5033131;28;20175;-71
2023/08/22 02:25:28;;;;;;;5.87;5.27;;;25.00;99.90;;;;;;5033785;28;20203;-72
2023/08/22 02:27:54;;;;;;;6.57;5.70;;;25.00;99.90;;;;;;5033588;28;20410;-70
2023/08/22 02:30:20;;;;;;;6.17;5.63;;;25.00;99.90;;;;;;5033318;28;20905;-71
2023/08/22 02:32:45;;;;;;;6.60;6.00;;;24.90;99.90;;;;;;5033587;28;20266;-71
2023/08/22 02:35:12;;;;;;;5.43;4.93;;;25.00;99.90;;;;;;5033001;28;20581;-70
2023/08/22 02:37:37;;;;;;;11.67;5.17;;;24.90;99.90;;;;;;5032835;28;20213;-71
2023/08/22 02:40:06;;;;;;;7.23;6.00;;;24.90;99.90;;;;;;5033260;28;20457;-72
2023/08/22 02:42:32;;;;;;;6.33;5.77;;;24.80;99.90;;;;;;5033505;28;20601;-71
2023/08/22 02:44:57;;;;;;;7.50;5.00;;;24.70;99.90;;;;;;5033306;28;20434;-71
2023/08/22 02:47:23;;;;;;;5.80;5.30;;;24.60;99.90;;;;;;5032921;28;20468;-71
2023/08/22 02:49:48;;;;;;;6.37;5.77;;;24.60;99.90;;;;;;5032701;28;20202;-71
2023/08/22 02:52:14;;;;;;;5.33;4.90;;;24.60;99.90;;;;;;5032678;28;20159;-70
2023/08/22 02:54:40;;;;;;;6.37;5.87;;;24.60;99.90;;;;;;5033119;28;20163;-70
2023/08/22 02:57:05;;;;;;;6.90;6.30;;;24.70;99.90;;;;;;5032872;28;20510;-71
2023/08/22 02:59:31;;;;;;;6.73;6.03;;;24.70;99.90;;;;;;5032823;28;20500;-71
2023/08/22 03:01:56;;;;;;;6.07;5.20;;;24.50;99.90;;;;;;5031422;28;20199;-71
2023/08/22 03:04:22;;;;;;;6.10;5.50;;;24.40;99.90;;;;;;5033252;28;20579;-70
2023/08/22 03:06:47;;;;;;;8.33;5.73;;;24.40;99.90;;;;;;5032256;28;20602;-70
2023/08/22 03:09:13;;;;;;;6.33;5.73;;;24.30;99.90;;;;;;5032790;28;20667;-72
2023/08/22 03:11:39;;;;;;;5.87;5.37;;;24.30;99.90;;;;;;5033001;28;20167;-72
2023/08/22 03:14:05;;;;;;;5.80;5.03;;;24.20;99.90;;;;;;5032673;28;20398;-71
2023/08/22 03:16:30;;;;;;;6.20;5.70;;;24.20;99.90;;;;;;5032609;28;20191;-71
2023/08/22 03:18:57;;;;;;;8.77;6.33;;;24.20;99.90;;;;;;5032621;28;20206;-71
2023/08/22 03:21:23;;;;;;;7.50;5.20;;;24.20;99.90;;;;;;5032038;28;20201;-72
2023/08/22 03:23:48;;;;;;;5.90;4.93;;;24.20;99.90;;;;;;5032395;28;20398;-71
2023/08/22 03:26:14;;;;;;;6.30;5.70;;;24.20;99.90;;;;;;5032268;28;20191;-71
2023/08/22 03:28:39;;;;;;;6.50;5.90;;;24.30;99.90;;;;;;5032448;28;20174;-71
2023/08/22 03:31:05;;;;;;;7.30;6.20;;;24.20;99.90;;;;;;5032358;28;20167;-71
2023/08/22 03:33:33;;;;;;;5.90;5.40;;;24.10;99.90;;;;;;5032353;28;20198;-71
2023/08/22 03:35:59;;;;;;;6.40;5.80;;;24.20;99.90;;;;;;5032336;28;20187;-71
2023/08/22 03:38:25;;;;;;;6.83;6.20;;;24.10;99.90;;;;;;5031952;28;20430;-72
2023/08/22 03:40:54;;;;;;;6.20;5.70;;;24.20;99.90;;;;;;5032501;28;20461;-71
2023/08/22 03:43:20;;;;;;;6.33;5.73;;;24.20;99.90;;;;;;5032498;28;20494;-72
2023/08/22 03:45:46;;;;;;;6.47;5.90;;;24.30;99.90;;;;;;5032141;28;20955;-71
2023/08/22 03:48:12;;;;;;;8.07;6.10;;;24.30;99.90;;;;;;5032534;28;20174;-71
2023/08/22 03:50:42;;;;;;;7.20;5.70;;;24.40;99.90;;;;;;5031040;28;20424;-72
2023/08/22 03:53:08;;;;;;;6.93;6.30;;;24.40;99.90;;;;;;5031419;28;20224;-72
2023/08/22 03:55:34;;;;;;;6.60;6.00;;;24.40;99.90;;;;;;5031942;28;20516;-72
2023/08/22 03:58:00;;;;;;;7.23;5.73;;;24.40;99.90;;;;;;5031830;28;20552;-71
2023/08/22 04:00:26;;;;;;;7.67;6.67;;;24.30;99.90;;;;;;5031957;28;20317;-70
2023/08/22 04:02:56;;;;;;;6.30;5.80;;;24.30;99.90;;;;;;5031957;28;20167;-70
2023/08/22 04:05:22;;;;;;;7.60;6.90;;;24.20;99.90;;;;;;5031895;28;20540;-72
2023/08/22 04:07:49;;;;;;;6.50;6.00;;;24.20;99.90;;;;;;5031718;28;20411;-73
2023/08/22 04:10:15;;;;;;;8.53;7.50;;;24.10;99.90;;;;;;5032074;28;20413;-72
2023/08/22 04:12:41;;;;;;;7.90;7.20;;;24.10;99.90;;;;;;5036011;28;20409;-72
2023/08/22 04:15:07;;;;;;;6.67;6.17;;;24.10;99.90;;;;;;5035558;28;20962;-71
2023/08/22 04:17:34;;;;;;;8.47;7.53;;;24.10;99.90;;;;;;5035998;28;20175;-71
2023/08/22 04:19:59;;;;;;;8.20;6.93;;;24.10;99.90;;;;;;5035346;28;20417;-72
2023/08/22 04:22:25;;;;;;;6.70;6.10;;;24.00;99.90;;;;;;5035715;28;20402;-70
2023/08/22 04:24:50;;;;;;;7.43;6.70;;;24.00;99.90;;;;;;5035617;28;20642;-71
2023/08/22 04:27:16;;;;;;;8.03;7.37;;;24.00;99.90;;;;;;5035893;28;20160;-71
2023/08/22 04:29:41;;;;;;;8.40;7.60;;;24.00;99.90;;;;;;5035622;28;20561;-70
2023/08/22 04:32:07;;;;;;;7.50;6.80;;;24.00;99.90;;;;;;5035635;28;20238;-71
2023/08/22 04:34:32;;;;;;;7.17;6.47;;;24.00;99.90;;;;;;5035230;28;20172;-72
2023/08/22 04:36:58;;;;;;;8.00;7.10;;;23.90;99.90;;;;;;5035129;28;20193;-70
2023/08/22 04:39:23;;;;;;;7.23;6.57;;;23.90;99.90;;;;;;5035320;28;20244;-71
2023/08/22 04:41:50;;;;;;;8.07;7.10;;;23.90;99.90;;;;;;5035549;28;20226;-71
2023/08/22 04:44:16;;;;;;;8.47;7.67;;;23.80;99.90;;;;;;5035258;28;20186;-72
2023/08/22 04:46:41;;;;;;;8.80;7.20;;;23.80;99.90;;;;;;5035261;28;20426;-71
2023/08/22 04:49:07;;;;;;;9.53;8.37;;;23.90;99.90;;;;;;5035324;28;20638;-71
2023/08/22 04:51:33;;;;;;;7.50;6.80;;;23.90;99.90;;;;;;5034616;28;20171;-71
2023/08/22 04:53:58;;;;;;;8.33;7.53;;;23.90;99.90;;;;;;5035131;28;20171;-70
2023/08/22 04:56:24;;;;;;;9.07;8.17;;;24.00;99.90;;;;;;5035106;28;20610;-71
2023/08/22 04:58:52;;;;;;;11.53;7.40;;;23.90;99.90;;;;;;5034955;28;20172;-72
2023/08/22 05:01:17;;;;;;;7.60;6.80;;;23.90;99.90;;;;;;5035115;28;20622;-71
2023/08/22 05:03:43;;;;;;;8.10;7.40;;;24.00;99.90;;;;;;5034981;28;20410;-72
2023/08/22 05:06:08;;;;;;;10.23;8.13;;;24.00;99.90;;;;;;5034608;28;20191;-71
2023/08/22 05:08:34;;;;;;;8.83;7.97;;;24.00;99.90;;;;;;5034816;28;20160;-71
2023/08/22 05:11:00;;;;;;;7.47;6.77;;;24.10;99.90;;;;;;5034846;28;20172;-72
2023/08/22 05:13:25;;;;;;;7.57;6.77;;;24.10;99.90;;;;;;5035106;28;20171;-72
2023/08/22 05:15:51;;;;;;;8.93;8.03;;;24.20;99.90;;;;;;5033515;28;20191;-72
2023/08/22 05:18:16;;;;;;;8.83;7.90;;;24.20;99.90;;;;;;5034690;28;20224;-70
2023/08/22 05:20:42;;;;;;;8.10;7.50;;;24.20;99.90;;;;;;5033341;28;20290;-71
2023/08/22 05:23:08;;;;;;;8.67;7.87;;;24.20;99.90;;;;;;5033146;28;20163;-71
2023/08/22 05:25:33;;;;;;;8.00;7.30;;;24.00;99.90;;;;;;5034222;28;20222;-71
2023/08/22 05:27:59;;;;;;;8.83;8.07;;;24.00;99.90;;;;;;5034490;28;20167;-72
2023/08/22 05:30:24;;;;;;;9.03;8.23;;;24.10;99.90;;;;;;5034356;28;20638;-73
2023/08/22 05:32:50;;;;;;;8.00;7.30;;;24.20;99.90;;;;;;5034780;28;20167;-71
2023/08/22 05:35:15;;;;;;;8.10;7.30;;;24.20;99.90;;;;;;5034503;28;20624;-70
2023/08/22 05:37:41;;;;;;;8.60;7.70;;;24.20;99.90;;;;;;5033862;28;20175;-71
2023/08/22 05:40:08;;;;;;;8.90;8.10;;;24.30;99.90;;;;;;5034182;28;20199;-71
2023/08/22 05:42:34;;;;;;;9.17;8.33;;;24.30;99.90;;;;;;5034456;28;20159;-70
2023/08/22 05:44:59;;;;;;;9.60;8.60;;;24.30;99.90;;;;;;5034279;28;20425;-71
2023/08/22 05:47:25;;;;;;;9.50;8.10;;;24.40;99.90;;;;;;5032941;28;20551;-72
2023/08/22 05:49:50;;;;;;;8.67;7.97;;;24.40;99.90;;;;;;5032982;28;20186;-72
2023/08/22 05:52:16;;;;;;;8.80;7.90;;;24.50;99.90;;;;;;5033476;28;20167;-71
2023/08/22 05:54:41;;;;;;;9.40;8.43;;;24.60;99.90;;;;;;5032579;28;20672;-71
2023/08/22 05:57:07;;;;;;;8.17;7.20;;;24.70;99.90;;;;;;5034316;28;20567;-71
2023/08/22 05:59:33;;;;;;;8.53;7.83;;;24.70;99.90;;;;;;5033934;28;20168;-71
2023/08/22 06:01:58;;;;;;;7.57;6.87;;;24.70;99.90;;;;;;5034067;28;20221;-71
2023/08/22 06:04:25;;;;;;;9.03;8.13;;;24.80;99.90;;;;;;5032845;28;20168;-71
2023/08/22 06:06:50;;;;;;;8.80;7.80;;;24.90;99.90;;;;;;5033225;28;20563;-71
2023/08/22 06:09:16;;;;;;;7.53;6.93;;;25.00;99.90;;;;;;5033920;28;20402;-72
2023/08/22 06:11:41;;;;;;;10.03;9.13;;;25.20;99.90;;;;;;5034155;28;20661;-72
2023/08/22 06:14:07;;;;;;;13.13;10.27;;;25.30;99.90;;;;;;5034013;28;20168;-72
2023/08/22 06:16:33;;;;;;;13.23;11.83;;;25.50;99.90;;;;;;5033929;28;20573;-72
2023/08/22 06:18:59;;;;;;;11.90;10.90;;;25.60;99.90;;;;;;5033638;28;20217;-72
2023/08/22 06:21:25;;;;;;;10.20;9.20;;;25.60;99.90;;;;;;5033026;28;20242;-72
2023/08/22 06:23:50;;;;;;;11.93;10.77;;;25.70;99.90;;;;;;5033465;28;20438;-71
2023/08/22 06:26:16;;;;;;;10.73;9.83;;;25.70;99.90;;;;;;5033671;28;20221;-72
2023/08/22 06:28:41;;;;;;;12.60;11.50;;;25.80;99.90;;;;;;5033383;28;20638;-70
2023/08/22 06:31:07;;;;;;;10.20;9.40;;;25.90;99.90;;;;;;5033567;28;20206;-73
2023/08/22 06:33:33;;;;;;;8.93;8.10;;;25.90;99.90;;;;;;5033469;28;20250;-71
2023/08/22 06:35:58;;;;;;;9.77;8.73;;;26.00;99.90;;;;;;5033004;28;20233;-72
2023/08/22 06:38:24;;;;;;;9.10;8.30;;;26.20;99.90;;;;;;5033387;28;20262;-71
2023/08/22 06:40:50;;;;;;;10.70;8.30;;;26.30;99.90;;;;;;5033490;28;20231;-71
2023/08/22 06:43:16;;;;;;;8.30;7.60;;;26.40;99.90;;;;;;5033253;28;20445;-72
2023/08/22 06:45:41;;;;;;;11.33;7.80;;;26.50;99.90;;;;;;5033285;28;20187;-71
2023/08/22 06:48:07;;;;;;;11.37;8.87;;;26.50;99.90;;;;;;5033155;28;20163;-71
2023/08/22 06:50:33;;;;;;;14.77;7.77;;;26.60;99.90;;;;;;5032529;28;20186;-70
2023/08/22 06:52:59;;;;;;;16.53;8.93;;;26.80;99.90;;;;;;5033208;28;20182;-71
2023/08/22 06:55:25;;;;;;;34.43;14.70;;;26.80;99.90;;;;;;5032928;28;20190;-71
2023/08/22 06:57:51;;;;;;;30.40;12.03;;;26.90;99.90;;;;;;5032716;28;20931;-71
2023/08/22 07:00:17;;;;;;;24.10;10.73;;;27.00;99.90;;;;;;5032689;28;20446;-71
2023/08/22 07:02:44;;;;;;;14.60;9.10;;;27.10;99.90;;;;;;5033198;28;20175;-71
2023/08/22 07:05:11;;;;;;;32.27;12.03;;;27.20;99.90;;;;;;5032915;28;20501;-71
2023/08/22 07:07:37;;;;;;;36.60;12.73;;;27.30;99.90;;;;;;5032986;28;20410;-72
2023/08/22 07:10:08;;;;;;;34.80;12.03;;;27.40;99.90;;;;;;5032667;28;20414;-72
2023/08/22 07:12:34;;;;;;;14.37;7.93;;;27.50;99.90;;;;;;5033012;28;20401;-72
2023/08/22 07:15:00;;;;;;;9.27;8.10;;;27.50;99.90;;;;;;5032697;28;20491;-70
2023/08/22 07:17:26;;;;;;;8.53;6.93;;;27.60;99.90;;;;;;5032726;28;20932;-71
2023/08/22 07:19:51;;;;;;;11.00;6.40;;;27.70;99.90;;;;;;5032225;28;20214;-72
2023/08/22 07:22:17;;;;;;;7.90;6.63;;;27.80;99.90;;;;;;5032652;28;20414;-73
2023/08/22 07:24:42;;;;;;;14.80;6.13;;;27.90;99.90;;;;;;5032507;28;20637;-72
2023/08/22 07:27:11;;;;;;;8.93;6.60;;;27.90;99.90;;;;;;5032690;28;20654;-71
2023/08/22 07:29:37;;;;;;;10.90;6.00;;;28.00;99.90;;;;;;5032537;28;20182;-72
2023/08/22 07:32:03;;;;;;;8.53;5.63;;;28.00;99.90;;;;;;5032566;28;20418;-72
2023/08/22 07:34:28;;;;;;;9.80;5.63;;;28.00;99.90;;;;;;5032817;28;20175;-71
2023/08/22 07:36:54;;;;;;;7.63;6.37;;;28.20;99.90;;;;;;5032181;28;20627;-71
2023/08/22 07:39:21;;;;;;;7.20;6.50;;;28.40;99.90;;;;;;5032489;28;20229;-71
2023/08/22 07:41:46;;;;;;;10.73;6.20;;;28.60;99.90;;;;;;5032344;28;20195;-72
2023/08/22 07:44:13;;;;;;;7.33;6.33;;;28.60;99.90;;;;;;5032458;28;20414;-71
2023/08/22 07:46:39;;;;;;;5.80;5.30;;;28.40;99.90;;;;;;5031596;28;20266;-72
2023/08/22 07:49:04;;;;;;;8.17;6.17;;;28.10;99.90;;;;;;5031741;28;20441;-70
2023/08/22 07:51:31;;;;;;;7.50;6.63;;;28.30;99.90;;;;;;5031847;28;20233;-71
2023/08/22 07:53:56;;;;;;;7.27;6.57;;;28.50;99.90;;;;;;5032507;28;20213;-72
2023/08/22 07:56:22;;;;;;;6.83;6.10;;;28.50;99.90;;;;;;5032531;28;20421;-72
2023/08/22 07:58:48;;;;;;;7.40;5.87;;;28.50;99.90;;;;;;5032099;28;20701;-71
2023/08/22 08:01:14;;;;;;;7.50;6.40;;;28.40;99.90;;;;;;5032197;28;20692;-71
2023/08/22 08:03:40;;;;;;;8.67;7.60;;;28.10;99.90;;;;;;5032473;28;20664;-72
2023/08/22 08:06:05;;;;;;;7.83;7.10;;;28.20;99.90;;;;;;5031672;28;20426;-72
2023/08/22 08:08:31;;;;;;;10.20;7.30;;;28.40;99.90;;;;;;5031973;28;20696;-71
2023/08/22 08:10:56;;;;;;;8.33;7.13;;;28.30;99.90;;;;;;5032079;28;20198;-72
2023/08/22 08:13:22;;;;;;;8.07;7.27;;;28.30;99.90;;;;;;5032085;28;20199;-70
2023/08/22 08:15:47;;;;;;;6.70;6.13;;;28.30;99.90;;;;;;5031151;28;20191;-72
2023/08/22 08:18:15;;;;;;;7.40;6.70;;;28.40;99.90;;;;;;5032182;28;20175;-72
2023/08/22 08:20:41;;;;;;;7.00;6.50;;;28.60;99.90;;;;;;5030597;28;20203;-72
2023/08/22 08:23:06;;;;;;;8.23;7.17;;;28.60;99.90;;;;;;5031463;28;20413;-71
2023/08/22 08:25:32;;;;;;;9.37;7.10;;;28.70;99.90;;;;;;5053486;23;20433;-71
2023/08/22 08:27:58;;;;;;;7.53;6.80;;;28.30;99.90;;;;;;5032550;28;20183;-71
2023/08/22 08:30:24;;;;;;;8.53;6.10;;;28.50;99.90;;;;;;5032535;28;20179;-71
2023/08/22 08:32:49;;;;;;;9.23;7.00;;;28.60;99.90;;;;;;5032364;28;20412;-72
2023/08/22 08:35:15;;;;;;;7.83;6.40;;;28.70;99.90;;;;;;5032384;28;20521;-72
2023/08/22 08:37:40;;;;;;;8.33;7.47;;;28.50;99.90;;;;;;5032271;28;20172;-71
2023/08/22 08:40:09;;;;;;;6.10;5.50;;;28.60;99.90;;;;;;5032408;28;20630;-72
2023/08/22 08:42:38;;;;;;;7.60;6.10;;;28.70;99.90;;;;;;5032444;28;20540;-71
2023/08/22 08:45:05;;;;;;;6.73;6.13;;;28.80;99.90;;;;;;5032236;28;20406;-71
2023/08/22 08:47:34;;;;;;;5.93;5.43;;;29.00;99.90;;;;;;5032935;28;20418;-72
2023/08/22 08:50:01;;;;;;;7.30;6.20;;;28.90;99.90;;;;;;5033305;28;20437;-71
2023/08/22 08:52:29;;;;;;;5.23;4.80;;;29.00;99.90;;;;;;5031902;28;20425;-70
2023/08/22 08:54:56;;;;;;;6.37;5.67;;;29.20;99.90;;;;;;5032497;28;20402;-70
2023/08/22 08:57:22;;;;;;;6.07;5.57;;;29.20;99.90;;;;;;5033245;28;20422;-71
2023/08/22 08:59:47;;;;;;;6.27;5.77;;;29.30;99.90;;;;;;5035596;28;20402;-71
2023/08/22 09:02:16;;;;;;;7.07;6.47;;;29.10;99.90;;;;;;5035556;28;20191;-71
2023/08/22 09:04:42;;;;;;;6.93;6.23;;;29.10;99.90;;;;;;5035615;28;20198;-70
2023/08/22 09:07:08;;;;;;;6.80;6.20;;;29.20;99.90;;;;;;5035122;28;20948;-70
2023/08/22 09:09:37;;;;;;;6.47;5.87;;;29.40;99.90;;;;;;5035679;28;20699;-71
2023/08/22 09:12:07;;;;;;;7.30;5.20;;;29.50;99.90;;;;;;5035489;28;20475;-72
2023/08/22 09:14:34;;;;;;;6.50;5.90;;;29.40;99.90;;;;;;5034182;28;20425;-71
2023/08/22 09:17:03;;;;;;;6.93;6.20;;;29.30;99.90;;;;;;5035407;28;20479;-72
2023/08/22 09:19:32;;;;;;;13.70;6.60;;;29.40;99.90;;;;;;5035329;28;20434;-72
2023/08/22 09:22:03;;;;;;;5.30;4.90;;;29.70;99.90;;;;;;5034909;28;20991;-71
2023/08/22 09:24:29;;;;;;;6.70;6.10;;;30.00;99.90;;;;;;5035637;28;20776;-71
2023/08/22 09:26:55;;;;;;;6.33;5.73;;;30.00;99.90;;;;;;5034989;28;20442;-72
2023/08/22 09:29:26;;;;;;;8.50;5.20;;;30.10;99.90;;;;;;5035111;28;20438;-71
2023/08/22 09:32:01;;;;;;;6.37;5.80;;;30.40;99.90;;;;;;5035433;28;20406;-71
2023/08/22 09:34:27;;;;;;;5.90;5.30;;;30.30;99.90;;;;;;5035650;28;20747;-72
2023/08/22 09:36:56;;;;;;;5.77;5.23;;;30.40;99.90;;;;;;5033320;28;20426;-72
2023/08/22 09:39:24;;;;;;;6.60;6.00;;;30.70;99.90;;;;;;5035127;28;20254;-71
2023/08/22 09:41:53;;;;;;;7.47;6.17;;;30.70;99.90;;;;;;5035008;28;20519;-71
2023/08/22 09:44:21;;;;;;;7.00;5.27;;;30.20;99.90;;;;;;5035238;28;20456;-71
2023/08/22 09:46:49;;;;;;;5.53;4.90;;;30.40;99.90;;;;;;5034813;28;20458;-71
2023/08/22 09:49:15;;;;;;;7.50;5.97;;;30.70;99.90;;;;;;5034880;28;20405;-71
2023/08/22 09:51:43;;;;;;;6.93;6.23;;;30.80;99.90;;;;;;5033740;28;20508;-72
2023/08/22 09:54:09;;;;;;;6.43;5.73;;;31.00;99.90;;;;;;5034426;28;20426;-71
2023/08/22 09:56:36;;;;;;;8.33;6.07;;;31.20;99.90;;;;;;5034678;28;20920;-71
2023/08/22 09:59:02;;;;;;;6.10;5.50;;;31.10;99.90;;;;;;5034418;28;20489;-71
2023/08/22 10:01:29;;;;;;;6.13;5.63;;;30.90;99.90;;;;;;5033240;28;20457;-71
2023/08/22 10:03:56;;;;;;;7.30;6.03;;;30.70;99.90;;;;;;5034613;28;20402;-70
2023/08/22 10:06:30;;;;;;;6.50;5.10;;;30.60;99.90;;;;;;5033889;28;20422;-71
2023/08/22 10:08:56;;;;;;;7.80;5.80;;;30.80;99.90;;;;;;5033590;28;20742;-71
2023/08/22 10:11:22;;;;;;;6.43;5.83;;;30.80;99.90;;;;;;5034560;28;20496;-71
2023/08/22 10:13:50;;;;;;;8.60;6.30;;;30.70;99.90;;;;;;5034191;28;20402;-71
2023/08/22 10:16:16;;;;;;;6.00;5.50;;;30.90;99.90;;;;;;5034242;28;20426;-72
2023/08/22 10:18:41;;;;;;;5.73;5.27;;;31.40;99.90;;;;;;5033849;28;20474;-72
2023/08/22 10:21:07;;;;;;;5.83;5.30;;;31.80;99.90;;;;;;5033249;28;20646;-71
2023/08/22 10:23:44;;;;;;;9.70;5.90;;;31.60;99.90;;;;;;5033854;28;20242;-71
2023/08/22 10:26:11;;;;;;;7.00;6.30;;;31.70;99.90;;;;;;5034058;28;20667;-71
2023/08/22 10:28:43;;;;;;;10.43;6.20;;;31.80;99.90;;;;;;5034055;28;20396;-71
2023/08/22 10:31:11;;;;;;;5.60;5.10;;;31.50;99.90;;;;;;5033967;28;20167;-71
2023/08/22 10:33:37;;;;;;;5.93;5.33;;;31.70;99.90;;;;;;5034295;28;20406;-71
2023/08/22 10:36:16;;;;;;;5.90;5.27;;;31.90;99.90;;;;;;5033874;28;20488;-72
2023/08/22 10:39:00;;;;;;;6.00;5.30;;;32.20;99.90;;;;;;5032836;28;20254;-71
2023/08/22 10:41:45;;;;;;;6.10;5.60;;;32.60;99.90;;;;;;5034709;28;20537;-72
2023/08/22 10:44:26;;;;;;;7.23;5.70;;;32.70;99.90;;;;;;5033849;28;20943;-71
2023/08/22 10:47:02;;;;;;;7.43;5.30;;;32.50;99.80;;;;;;5033932;28;20444;-71
2023/08/22 10:49:38;;;;;;;7.10;5.10;;;32.70;99.90;;;;;;5033699;28;20503;-72
2023/08/22 10:52:11;;;;;;;6.97;4.73;;;32.80;99.00;;;;;;5033186;28;20499;-70
2023/08/22 10:55:00;;;;;;;9.57;5.03;;;33.00;98.90;;;;;;5033595;28;20421;-71
2023/08/22 10:57:30;;;;;;;6.97;4.87;;;32.80;98.90;;;;;;5032921;28;20453;-71
2023/08/22 10:59:58;;;;;;;7.73;5.03;;;33.10;98.90;;;;;;5033853;28;20840;-71
2023/08/22 11:02:32;;;;;;;6.50;4.80;;;34.00;97.50;;;;;;5033732;28;20457;-72
2023/08/22 11:05:00;;;;;;;4.80;4.40;;;33.70;97.20;;;;;;5033421;28;20389;-72
2023/08/22 11:07:26;;;;;;;7.67;4.93;;;34.10;96.70;;;;;;5033045;28;20938;-72
2023/08/22 11:09:54;;;;;;;5.40;4.90;;;34.70;95.50;;;;;;5033678;28;20438;-72
2023/08/22 11:12:20;;;;;;;6.60;4.67;;;34.00;95.90;;;;;;5033611;28;20406;-71
2023/08/22 11:14:46;;;;;;;5.83;5.00;;;33.70;96.20;;;;;;5033234;28;20414;-71
2023/08/22 11:17:40;;;;;;;9.00;5.07;;;33.50;96.30;;;;;;5033599;28;20489;-71
2023/08/22 11:20:10;;;;;;;5.73;4.77;;;34.40;94.80;;;;;;5031290;28;20923;-72
2023/08/22 11:22:36;;;;;;;7.43;4.77;;;35.00;94.50;;;;;;5031993;28;20480;-73
2023/08/22 11:25:02;;;;;;;5.03;4.57;;;35.30;93.80;;;;;;5033230;28;20426;-72
2023/08/22 11:27:28;;;;;;;5.17;4.67;;;35.50;93.50;;;;;;5033004;28;20613;-72
2023/08/22 11:29:53;;;;;;;6.13;5.07;;;35.40;93.10;;;;;;5033005;28;20410;-72
2023/08/22 11:32:24;;;;;;;5.30;4.80;;;35.10;93.30;;;;;;5033043;28;20638;-73
2023/08/22 11:34:52;;;;;;;7.07;4.00;;;35.50;92.50;;;;;;5033190;28;20256;-72
2023/08/22 11:37:18;;;;;;;5.47;4.90;;;36.10;91.60;;;;;;5032455;28;20803;-73
2023/08/22 11:39:48;;;;;;;4.50;4.20;;;36.10;91.30;;;;;;5033162;28;20457;-72
2023/08/22 11:42:15;;;;;;;6.50;4.90;;;36.10;91.30;;;;;;5033112;28;20983;-71
2023/08/22 11:45:03;;;;;;;4.80;4.40;;;35.90;91.40;;;;;;5033045;28;20424;-72
2023/08/22 11:47:35;;;;;;;4.63;4.23;;;36.60;89.40;;;;;;5032797;28;20433;-72
2023/08/22 11:50:01;;;;;;;5.20;4.70;;;36.60;89.20;;;;;;5032539;28;20398;-72
2023/08/22 11:52:29;;;;;;;5.03;4.10;;;37.20;88.70;;;;;;5032102;28;20860;-72
2023/08/22 11:55:06;;;;;;;4.90;3.83;;;37.40;85.50;;;;;;5032272;28;20183;-72
2023/08/22 11:57:33;;;;;;;5.20;4.40;;;38.30;84.00;;;;;;5032701;28;20436;-72
2023/08/22 12:00:09;;;;;;;8.80;4.43;;;38.60;81.00;;;;;;5032997;28;20406;-73
2023/08/22 12:02:35;;;;;;;6.37;4.40;;;38.60;79.80;;;;;;5033146;28;20390;-73
2023/08/22 12:05:02;;;;;;;4.90;4.50;;;38.40;78.30;;;;;;5033051;28;20406;-73
2023/08/22 12:07:28;;;;;;;4.90;4.40;;;37.80;79.20;;;;;;5032344;28;20943;-72
2023/08/22 12:10:00;;;;;;;4.20;3.90;;;36.90;81.30;;;;;;5032956;28;20398;-72
2023/08/22 12:12:26;;;;;;;7.40;4.70;;;35.60;84.10;;;;;;5031446;28;20551;-72
2023/08/22 12:14:51;;;;;;;5.90;3.73;;;35.90;84.70;;;;;;5032806;28;20398;-72
2023/08/22 12:17:18;;;;;;;9.10;3.77;;;36.80;81.60;;;;;;5032826;28;20211;-72
2023/08/22 12:19:44;;;;;;;4.53;4.10;;;35.80;83.70;;;;;;5032757;28;20634;-72
2023/08/22 12:22:10;;;;;;;4.60;4.20;;;35.90;83.20;;;;;;5031994;28;20450;-72
2023/08/22 12:24:35;;;;;;;4.10;3.80;;;37.30;82.90;;;;;;5032599;28;20673;-72
2023/08/22 12:27:01;;;;;;;8.87;4.33;;;39.20;76.80;;;;;;5033179;28;20207;-73
2023/08/22 12:29:26;;;;;;;4.13;3.77;;;40.30;72.70;;;;;;5032503;28;20174;-73
2023/08/22 12:31:52;;;;;;;5.53;3.80;;;39.80;70.50;;;;;;5033693;28;20171;-72
2023/08/22 12:34:17;;;;;;;3.90;3.60;;;40.50;71.70;;;;;;5036600;28;20219;-73
2023/08/22 12:36:43;;;;;;;4.83;4.43;;;40.20;67.90;;;;;;5037648;28;20276;-73
2023/08/22 12:39:12;;;;;;;4.30;3.50;;;38.90;71.30;;;;;;5036754;28;20178;-71
2023/08/22 12:41:40;;;;;;;6.00;3.40;;;37.90;73.90;;;;;;5037064;28;20224;-73
2023/08/22 12:44:08;;;;;;;4.00;3.60;;;37.10;75.10;;;;;;5036787;28;20421;-73
2023/08/22 12:46:34;;;;;;;5.90;4.13;;;37.20;75.20;;;;;;5036531;28;20417;-73